createdAt,value
2018-05-10T00:00:29.597Z,18.20
2018-05-10T00:03:02.098Z,18.20
2018-05-10T00:05:33.863Z,18.20
2018-05-10T00:08:05.074Z,18.20
2018-05-10T00:10:35.455Z,18.10
2018-05-10T00:13:07.853Z,18.10
2018-05-10T00:15:37.682Z,18.10
2018-05-10T00:18:08.261Z,18.10
2018-05-10T00:20:41.477Z,18.00
2018-05-10T00:23:11.359Z,18.00
2018-05-10T00:25:42.168Z,18.00
2018-05-10T00:28:12.593Z,17.90
2018-05-10T00:30:45.522Z,17.90
2018-05-10T00:33:15.460Z,17.90
2018-05-10T00:35:45.444Z,17.90
2018-05-10T00:38:18.645Z,17.90
2018-05-10T00:40:48.473Z,17.90
2018-05-10T00:43:18.508Z,17.90
2018-05-10T00:45:49.759Z,17.90
2018-05-10T00:48:19.738Z,17.90
2018-05-10T00:50:49.550Z,17.80
2018-05-10T00:53:19.562Z,17.80
2018-05-10T00:55:49.425Z,17.90
2018-05-10T00:58:19.590Z,17.80
2018-05-10T01:00:49.954Z,17.80
2018-05-10T01:03:21.944Z,17.70
2018-05-10T01:05:52.403Z,17.70
2018-05-10T01:08:23.694Z,17.70
2018-05-10T01:10:54.738Z,17.60
2018-05-10T01:13:24.963Z,17.60
2018-05-10T01:15:54.892Z,17.60
2018-05-10T01:18:25.316Z,17.60
2018-05-10T01:20:55.573Z,17.50
2018-05-10T01:23:26.905Z,17.50
2018-05-10T01:25:57.492Z,17.50
2018-05-10T01:28:27.452Z,17.50
2018-05-10T01:30:58.190Z,17.30
2018-05-10T01:33:31.294Z,17.20
2018-05-10T01:36:13.506Z,17.20
2018-05-10T01:38:45.627Z,17.20
2018-05-10T01:41:17.833Z,17.10
2018-05-10T01:43:50.730Z,16.90
2018-05-10T01:46:20.574Z,16.90
2018-05-10T01:48:50.955Z,16.80
2018-05-10T01:51:22.074Z,16.70
2018-05-10T01:53:52.167Z,16.70
2018-05-10T01:56:22.044Z,16.70
2018-05-10T01:58:54.458Z,16.50
2018-05-10T02:01:25.607Z,16.50
2018-05-10T02:03:55.741Z,16.50
2018-05-10T02:06:27.610Z,16.40
2018-05-10T02:08:58.865Z,16.20
2018-05-10T02:11:29.612Z,16.10
2018-05-10T02:13:59.967Z,16.10
2018-05-10T02:16:30.171Z,16.10
2018-05-10T02:19:00.148Z,16.00
2018-05-10T02:21:31.136Z,15.90
2018-05-10T02:24:01.026Z,15.90
2018-05-10T02:26:30.857Z,15.90
2018-05-10T02:29:00.675Z,15.90
2018-05-10T02:31:30.742Z,15.90
2018-05-10T02:34:01.820Z,15.80
2018-05-10T02:36:32.241Z,15.80
2018-05-10T02:39:02.184Z,15.80
2018-05-10T02:41:33.215Z,15.70
2018-05-10T02:44:04.467Z,15.70
2018-05-10T02:46:34.474Z,15.60
2018-05-10T02:49:04.443Z,15.60
2018-05-10T02:51:35.365Z,15.60
2018-05-10T02:54:05.709Z,15.60
2018-05-10T02:56:36.719Z,15.50
2018-05-10T02:59:07.901Z,15.50
2018-05-10T03:01:38.543Z,15.40
2018-05-10T03:04:10.380Z,15.30
2018-05-10T03:06:40.211Z,15.30
2018-05-10T03:09:11.955Z,15.30
2018-05-10T03:11:41.778Z,15.30
2018-05-10T03:14:12.395Z,15.20
2018-05-10T03:16:43.140Z,15.20
2018-05-10T03:19:13.650Z,15.20
2018-05-10T03:21:43.926Z,15.10
2018-05-10T03:24:16.171Z,15.10
2018-05-10T03:26:47.198Z,15.00
2018-05-10T03:29:20.108Z,15.00
2018-05-10T03:31:50.264Z,14.90
2018-05-10T03:34:20.183Z,14.90
2018-05-10T03:36:50.428Z,14.90
2018-05-10T03:39:22.334Z,14.80
2018-05-10T03:41:54.020Z,14.80
2018-05-10T03:44:24.122Z,14.80
2018-05-10T03:46:56.432Z,14.80
2018-05-10T03:49:28.524Z,14.90
2018-05-10T03:51:59.278Z,14.80
2018-05-10T03:54:29.330Z,14.80
2018-05-10T03:57:00.589Z,14.80
2018-05-10T03:59:30.542Z,14.80
2018-05-10T04:02:00.624Z,14.70
2018-05-10T04:04:42.201Z,14.80
2018-05-10T04:07:23.490Z,14.70
2018-05-10T04:10:04.595Z,14.70
2018-05-10T04:12:35.384Z,14.70
2018-05-10T04:15:05.757Z,14.70
2018-05-10T04:17:38.445Z,14.80
2018-05-10T04:20:10.686Z,14.80
2018-05-10T04:22:41.996Z,14.80
2018-05-10T04:25:11.786Z,14.70
2018-05-10T04:27:41.505Z,14.70
2018-05-10T04:30:13.356Z,14.60
2018-05-10T04:32:44.453Z,14.70
2018-05-10T04:35:16.581Z,14.70
2018-05-10T04:37:46.358Z,14.60
2018-05-10T04:40:17.482Z,14.60
2018-05-10T04:42:48.500Z,14.60
2018-05-10T04:45:19.111Z,15.00
2018-05-10T04:47:49.399Z,15.30
2018-05-10T04:50:19.478Z,15.40
2018-05-10T04:52:49.839Z,15.40
2018-05-10T04:55:21.783Z,15.30
2018-05-10T04:57:51.909Z,15.30
2018-05-10T05:00:22.621Z,15.10
2018-05-10T05:02:52.317Z,15.10
2018-05-10T05:05:23.564Z,15.10
2018-05-10T05:07:53.589Z,15.10
2018-05-10T05:10:23.722Z,15.00
2018-05-10T05:12:54.365Z,15.00
2018-05-10T05:15:27.305Z,14.90
2018-05-10T05:17:58.579Z,14.90
2018-05-10T05:20:29.821Z,14.90
2018-05-10T05:22:59.862Z,14.90
2018-05-10T05:25:31.175Z,15.10
2018-05-10T05:28:02.160Z,15.10
2018-05-10T05:30:34.274Z,15.30
2018-05-10T05:33:04.452Z,15.40
2018-05-10T05:35:34.687Z,15.50
2018-05-10T05:38:06.910Z,15.60
2018-05-10T05:40:36.981Z,15.70
2018-05-10T05:43:08.053Z,15.80
2018-05-10T05:45:38.051Z,15.80
2018-05-10T05:48:08.353Z,16.00
2018-05-10T05:50:38.838Z,16.00
2018-05-10T05:53:09.388Z,16.00
2018-05-10T05:55:40.523Z,16.10
2018-05-10T05:58:10.278Z,16.10
2018-05-10T06:00:41.426Z,16.10
2018-05-10T06:03:11.264Z,16.10
2018-05-10T06:05:41.402Z,16.20
2018-05-10T06:08:11.249Z,16.30
2018-05-10T06:10:43.523Z,16.40
2018-05-10T06:13:14.738Z,16.50
2018-05-10T06:15:47.044Z,16.40
2018-05-10T06:18:17.511Z,16.40
2018-05-10T06:20:47.784Z,16.40
2018-05-10T06:23:18.136Z,16.50
2018-05-10T06:25:48.081Z,16.70
2018-05-10T06:28:18.357Z,17.40
2018-05-10T06:30:49.168Z,17.90
2018-05-10T06:33:19.855Z,18.70
2018-05-10T08:14:42.670Z,18.40
2018-05-10T08:17:24.120Z,19.30
2018-05-10T08:20:01.928Z,20.10
2018-05-10T08:22:31.051Z,20.60
2018-05-10T08:25:09.705Z,20.70
2018-05-10T08:27:50.187Z,19.60
2018-05-10T08:30:29.213Z,19.60
2018-05-10T08:33:05.778Z,19.10
2018-05-10T08:35:50.287Z,18.30
2018-05-10T08:38:27.514Z,17.50
2018-05-10T08:41:00.533Z,16.80
2018-05-10T08:43:29.580Z,16.80
2018-05-10T08:46:06.419Z,15.70
2018-05-10T08:48:44.998Z,15.70
2018-05-10T08:51:14.941Z,15.40
2018-05-10T08:53:44.647Z,15.40
2018-05-10T08:56:14.734Z,15.20
2018-05-10T08:58:45.608Z,15.30
2018-05-10T09:01:23.904Z,15.30
2018-05-10T09:03:53.984Z,15.40
2018-05-10T09:06:32.451Z,15.50
2018-05-10T09:09:10.239Z,15.50
2018-05-10T09:11:41.159Z,15.70
2018-05-10T09:14:18.619Z,15.70
2018-05-10T09:16:56.031Z,15.70
2018-05-10T09:19:33.948Z,15.70
2018-05-10T09:22:12.030Z,16.00
2018-05-10T09:24:49.572Z,16.20
2018-05-10T09:27:25.808Z,16.20
2018-05-10T09:30:02.502Z,16.30
2018-05-10T09:32:40.140Z,16.40
2018-05-10T09:35:10.604Z,16.50
2018-05-10T09:37:41.594Z,16.70
2018-05-10T09:40:12.530Z,17.00
2018-05-10T09:42:48.829Z,17.10
2018-05-10T09:45:24.365Z,17.30
2018-05-10T09:48:00.829Z,17.40
2018-05-10T09:50:36.214Z,17.30
2018-05-10T09:53:13.329Z,17.10
2018-05-10T09:55:44.203Z,17.20
2018-05-10T09:58:15.813Z,17.30
2018-05-10T10:00:46.615Z,17.30
2018-05-10T10:03:17.325Z,17.30
2018-05-10T10:05:49.519Z,16.80
2018-05-10T10:08:19.665Z,16.80
2018-05-10T10:10:50.174Z,16.70
2018-05-10T10:13:21.192Z,16.60
2018-05-10T10:15:52.099Z,16.20
2018-05-10T10:18:21.208Z,16.00
2018-05-10T10:20:56.447Z,15.90
2018-05-10T10:23:27.732Z,15.90
2018-05-10T10:25:58.516Z,15.70
2018-05-10T10:28:28.588Z,15.60
2018-05-10T10:30:59.546Z,15.70
2018-05-10T10:33:31.806Z,15.50
2018-05-10T10:36:02.955Z,15.40
2018-05-10T10:38:33.991Z,15.40
2018-05-10T10:41:05.017Z,15.30
2018-05-10T10:43:35.936Z,15.30
2018-05-10T10:46:12.244Z,15.30
2018-05-10T10:48:48.386Z,15.40
2018-05-10T10:51:18.824Z,15.20
2018-05-10T10:53:54.645Z,15.20
2018-05-10T10:56:26.216Z,15.20
2018-05-10T10:59:05.170Z,15.30
2018-05-10T11:01:34.696Z,15.30
2018-05-10T11:04:12.845Z,15.30
2018-05-10T11:06:51.071Z,15.30
2018-05-10T11:09:28.844Z,15.30
2018-05-10T11:12:07.075Z,15.20
2018-05-10T11:14:38.328Z,15.20
2018-05-10T11:17:09.388Z,15.30
2018-05-10T11:19:48.773Z,15.20
2018-05-10T11:22:26.507Z,15.30
2018-05-10T11:25:05.758Z,15.30
2018-05-10T11:27:46.172Z,15.50
2018-05-10T11:30:16.106Z,15.50
2018-05-10T11:32:54.974Z,15.80
2018-05-10T11:35:32.821Z,15.80
2018-05-10T11:38:05.490Z,16.00
2018-05-10T11:40:44.433Z,16.10
2018-05-10T11:43:21.940Z,16.10
2018-05-10T11:45:53.081Z,16.20
2018-05-10T11:48:26.045Z,16.10
2018-05-10T11:51:10.526Z,16.10
2018-05-10T11:53:48.769Z,16.20
2018-05-10T11:56:26.059Z,16.10
2018-05-10T11:59:03.053Z,16.00
2018-05-10T12:01:33.415Z,16.00
2018-05-10T12:04:11.441Z,16.00
2018-05-10T12:06:42.326Z,16.10
2018-05-10T12:09:20.361Z,16.40
2018-05-10T12:11:57.922Z,16.40
2018-05-10T12:14:32.001Z,16.50
2018-05-10T12:17:10.896Z,16.40
2018-05-10T12:19:47.878Z,16.50
2018-05-10T12:22:26.177Z,16.50
2018-05-10T12:25:04.162Z,16.50
2018-05-10T12:27:36.554Z,16.70
2018-05-10T12:30:15.371Z,16.70
2018-05-10T12:32:52.585Z,16.80
2018-05-10T12:35:30.968Z,16.80
2018-05-10T12:38:03.721Z,16.80
2018-05-10T12:40:43.322Z,16.80
2018-05-10T12:43:21.690Z,16.80
2018-05-10T12:46:01.001Z,17.00
2018-05-10T12:48:31.997Z,17.00
2018-05-10T12:51:10.309Z,16.90
2018-05-10T12:53:47.704Z,17.00
2018-05-10T12:56:23.907Z,17.10
2018-05-10T12:59:02.952Z,17.10
2018-05-10T13:01:41.868Z,17.20
2018-05-10T13:04:13.997Z,17.30
2018-05-10T13:06:52.070Z,17.30
2018-05-10T13:09:23.260Z,17.30
2018-05-10T13:11:54.793Z,17.10
2018-05-10T13:14:31.513Z,17.20
2018-05-10T13:17:14.798Z,17.20
2018-05-10T13:19:54.317Z,17.20
2018-05-10T13:22:32.141Z,17.20
2018-05-10T13:25:09.982Z,17.20
2018-05-10T13:27:39.807Z,17.20
2018-05-10T13:30:17.760Z,17.10
2018-05-10T13:32:55.161Z,17.20
2018-05-10T13:35:32.733Z,17.30
2018-05-10T13:38:12.095Z,17.40
2018-05-10T13:40:50.883Z,17.70
2018-05-10T13:43:21.039Z,18.00
2018-05-10T13:45:53.515Z,18.40
2018-05-10T13:48:23.518Z,18.80
2018-05-10T13:51:03.383Z,19.20
2018-05-10T13:53:42.193Z,19.50
2018-05-10T13:56:14.007Z,20.40
2018-05-10T13:58:54.270Z,20.40
2018-05-10T14:01:39.569Z,20.40
2018-05-10T14:04:16.576Z,20.70
2018-05-10T14:06:55.778Z,21.10
2018-05-10T14:09:34.701Z,21.50
2018-05-10T14:12:13.827Z,21.60
2018-05-10T14:14:54.258Z,21.50
2018-05-10T14:17:33.529Z,21.40
2018-05-10T14:20:11.448Z,21.30
2018-05-10T14:22:41.381Z,20.70
2018-05-10T14:25:20.477Z,20.10
2018-05-10T14:27:58.843Z,20.10
2018-05-10T14:30:39.700Z,21.40
2018-05-10T14:33:17.752Z,21.30
2018-05-10T14:35:48.304Z,22.40
2018-05-10T14:38:27.024Z,21.70
2018-05-10T14:41:04.379Z,21.70
2018-05-10T14:43:44.796Z,21.70
2018-05-10T14:46:14.447Z,22.10
2018-05-10T14:48:52.393Z,22.50
2018-05-10T14:51:33.534Z,22.40
2018-05-10T14:54:11.550Z,22.30
2018-05-10T14:56:48.967Z,22.20
2018-05-10T14:59:31.759Z,22.10
2018-05-10T15:02:09.452Z,22.00
2018-05-10T15:04:40.032Z,22.00
2018-05-10T15:07:18.808Z,21.80
2018-05-10T15:10:02.068Z,21.80
2018-05-10T15:12:40.634Z,21.60
2018-05-10T15:15:10.638Z,21.30
2018-05-10T15:17:49.294Z,20.60
2018-05-10T15:20:27.377Z,20.50
2018-05-10T15:22:57.536Z,20.00
2018-05-10T15:25:38.530Z,20.00
2018-05-10T15:28:08.229Z,19.90
2018-05-10T15:30:47.279Z,19.90
2018-05-10T15:33:24.319Z,19.70
2018-05-10T15:36:05.472Z,19.40
2018-05-10T15:38:43.937Z,19.30
2018-05-10T15:41:21.428Z,19.20
2018-05-10T15:43:57.005Z,19.20
2018-05-10T15:46:28.265Z,19.20
2018-05-10T15:49:00.143Z,19.20
2018-05-10T15:51:31.029Z,19.10
2018-05-10T15:54:03.587Z,19.00
2018-05-10T15:56:35.211Z,19.00
2018-05-10T15:59:06.426Z,19.00
2018-05-10T16:43:31.313Z,19.00
2018-05-10T16:46:02.055Z,19.10
2018-05-10T16:48:33.316Z,19.10
2018-05-10T16:51:04.542Z,19.10
2018-05-10T16:53:35.933Z,18.90
2018-05-10T16:56:06.340Z,18.90
2018-05-10T16:58:35.829Z,18.80
2018-05-10T17:01:06.385Z,18.60
2018-05-10T17:03:38.940Z,18.60
2018-05-10T17:06:09.288Z,18.60
2018-05-10T17:08:39.327Z,18.60
2018-05-10T17:11:09.585Z,18.60
2018-05-10T17:13:40.754Z,18.50
2018-05-10T17:16:11.114Z,18.50
2018-05-10T17:18:41.414Z,18.40
2018-05-10T17:21:12.770Z,18.30
2018-05-10T17:23:43.503Z,18.20
2018-05-10T17:26:13.322Z,18.10
2018-05-10T17:28:43.994Z,18.10
2018-05-10T17:31:14.497Z,18.10
2018-05-10T17:33:45.895Z,18.00
2018-05-10T17:36:17.754Z,18.10
2018-05-10T17:38:48.969Z,18.00
2018-05-10T17:41:19.338Z,18.00
2018-05-10T17:43:49.266Z,18.00
2018-05-10T17:46:19.761Z,17.90
2018-05-10T17:48:51.145Z,17.80
2018-05-10T17:51:22.265Z,17.80
2018-05-10T17:53:53.703Z,17.80
2018-05-10T17:56:24.916Z,17.70
2018-05-10T17:58:55.606Z,17.60
2018-05-10T18:01:28.179Z,17.70
2018-05-10T18:03:58.432Z,17.60
2018-05-10T18:06:28.838Z,17.60
2018-05-10T18:09:01.414Z,17.50
2018-05-10T18:11:34.579Z,17.50
2018-05-10T18:14:06.342Z,17.50
2018-05-10T18:16:36.569Z,17.50
2018-05-10T18:19:06.431Z,17.40
2018-05-10T18:21:39.298Z,17.30
2018-05-10T18:24:09.928Z,17.30
2018-05-10T18:26:39.787Z,17.20
2018-05-10T18:29:11.482Z,17.00
2018-05-10T18:31:42.732Z,17.00
2018-05-10T18:34:13.305Z,17.00
2018-05-10T18:36:43.280Z,16.90
2018-05-10T18:39:15.858Z,16.90
2018-05-10T18:41:46.356Z,16.80
2018-05-10T18:44:16.804Z,16.60
2018-05-10T18:46:49.464Z,16.60
2018-05-10T18:49:20.272Z,16.40
2018-05-10T18:51:53.974Z,16.40
2018-05-10T18:54:24.350Z,16.40
2018-05-10T18:56:55.068Z,16.30
2018-05-10T18:59:28.104Z,16.20
2018-05-10T19:01:57.973Z,16.20
2018-05-10T19:04:27.870Z,16.10
2018-05-10T19:06:59.344Z,16.00
2018-05-10T19:09:31.914Z,15.90
2018-05-10T19:12:07.406Z,15.90
2018-05-10T19:14:37.350Z,15.80
2018-05-10T19:17:08.109Z,15.60
2018-05-10T19:19:40.405Z,15.60
2018-05-10T19:22:15.201Z,15.50
2018-05-10T19:24:45.106Z,15.50
2018-05-10T19:27:18.838Z,15.30
2018-05-10T19:29:50.938Z,15.30
2018-05-10T19:32:21.329Z,15.20
2018-05-10T19:34:52.058Z,15.10
2018-05-10T19:37:22.766Z,15.00
2018-05-10T19:39:53.152Z,15.10
2018-05-10T19:42:25.700Z,15.00
2018-05-10T19:44:56.283Z,15.00
2018-05-10T19:47:27.745Z,15.00
2018-05-10T19:49:58.642Z,14.90
2018-05-10T19:52:29.406Z,14.80
2018-05-10T19:55:01.894Z,14.90
2018-05-10T19:57:34.969Z,14.80
2018-05-10T20:00:07.194Z,14.70
2018-05-10T20:02:39.569Z,14.70
2018-05-10T20:05:10.090Z,14.70
2018-05-10T20:07:40.464Z,14.60
2018-05-10T20:10:13.818Z,14.50
2018-05-10T20:12:43.594Z,14.50
2018-05-10T20:15:13.329Z,14.40
2018-05-10T20:17:43.254Z,14.40
2018-05-10T20:20:13.672Z,14.40
2018-05-10T20:22:43.576Z,14.30
2018-05-10T20:25:14.208Z,14.20
2018-05-10T20:27:44.005Z,14.20
2018-05-10T20:30:14.575Z,14.10
2018-05-10T20:32:45.033Z,14.10
2018-05-10T20:35:15.406Z,14.00
2018-05-10T20:37:45.337Z,14.00
2018-05-10T20:40:15.091Z,13.90
2018-05-10T20:42:46.947Z,13.90
2018-05-10T20:45:16.815Z,13.90
2018-05-10T20:47:47.284Z,13.80
2018-05-10T20:50:17.962Z,13.80
2018-05-10T20:52:48.438Z,13.80
2018-05-10T20:55:18.667Z,13.80
2018-05-10T20:57:49.523Z,13.80
2018-05-10T21:00:20.537Z,13.70
2018-05-10T21:02:50.786Z,13.70
2018-05-10T21:05:21.292Z,13.50
2018-05-10T21:07:51.430Z,13.50
2018-05-10T21:10:22.014Z,13.40
2018-05-10T21:12:52.386Z,13.40
2018-05-10T21:15:23.351Z,13.30
2018-05-10T21:17:53.050Z,13.30
2018-05-10T21:20:23.346Z,13.30
2018-05-10T21:22:53.467Z,13.20
2018-05-10T21:25:23.795Z,13.20
2018-05-10T21:27:54.812Z,13.10
2018-05-10T21:30:24.651Z,13.10
2018-05-10T21:32:55.783Z,13.00
2018-05-10T21:35:26.786Z,12.90
2018-05-10T21:37:57.320Z,12.90
2018-05-10T21:40:27.728Z,12.90
2018-05-10T21:42:57.408Z,12.80
2018-05-10T21:45:29.345Z,12.90
2018-05-10T21:47:59.613Z,12.90
2018-05-10T21:50:30.041Z,12.90
2018-05-10T21:53:00.532Z,12.80
2018-05-10T21:55:32.612Z,12.70
2018-05-10T21:58:05.572Z,12.60
2018-05-10T22:00:35.880Z,12.50
2018-05-10T22:03:07.955Z,12.50
2018-05-10T22:05:37.876Z,12.40
2018-05-10T22:08:08.240Z,12.40
2018-05-10T22:10:38.436Z,12.40
2018-05-10T22:13:08.887Z,12.30
2018-05-10T22:15:38.673Z,12.30
2018-05-10T22:18:09.129Z,12.20
2018-05-10T22:20:39.384Z,12.20
2018-05-10T22:23:10.342Z,12.10
2018-05-10T22:25:40.522Z,12.10
2018-05-10T22:28:10.874Z,12.10
2018-05-10T22:30:42.613Z,12.10
2018-05-10T22:33:13.152Z,12.10
2018-05-10T22:35:46.058Z,12.00
2018-05-10T22:38:16.267Z,12.00
2018-05-10T22:40:45.812Z,12.00
2018-05-10T22:43:16.927Z,12.00
2018-05-10T22:45:46.745Z,12.00
2018-05-10T22:48:16.962Z,11.90
2018-05-10T22:50:46.667Z,11.90
2018-05-10T22:53:18.736Z,11.80
2018-05-10T22:55:48.763Z,11.80
2018-05-10T22:58:18.491Z,11.80
2018-05-10T23:00:48.761Z,11.80
2018-05-10T23:03:19.781Z,11.70
2018-05-10T23:05:49.876Z,11.70
2018-05-10T23:08:23.032Z,11.70
2018-05-10T23:10:53.060Z,11.70
2018-05-10T23:13:23.403Z,11.70
2018-05-10T23:15:53.771Z,11.60
2018-05-10T23:18:24.132Z,11.60
2018-05-10T23:20:56.099Z,11.60
2018-05-10T23:23:28.184Z,11.60
2018-05-10T23:25:59.115Z,11.50
2018-05-10T23:28:30.293Z,11.50
2018-05-10T23:31:00.609Z,11.50
2018-05-10T23:33:31.366Z,11.50
2018-05-10T23:36:01.036Z,11.40
2018-05-10T23:38:32.426Z,11.40
2018-05-10T23:41:02.468Z,11.40
2018-05-10T23:43:32.611Z,11.30
2018-05-10T23:46:02.898Z,11.30
2018-05-10T23:48:33.180Z,11.30
2018-05-10T23:51:04.187Z,11.20
2018-05-10T23:53:36.227Z,11.20
2018-05-10T23:56:06.725Z,11.20
2018-05-10T23:58:36.948Z,11.20
